createdAt,value
2022-09-25T00:00:37.768Z,13.27
2022-09-25T00:02:39.486Z,15.68
2022-09-25T00:04:41.099Z,12.95
2022-09-25T00:06:42.735Z,17.20
2022-09-25T00:08:45.271Z,17.58
2022-09-25T00:10:50.836Z,14.05
2022-09-25T00:12:52.958Z,14.25
2022-09-25T00:14:55.733Z,12.68
2022-09-25T00:16:57.390Z,13.15
2022-09-25T00:19:18.277Z,12.93
2022-09-25T00:21:19.998Z,9.52
2022-09-25T00:23:21.610Z,8.85
2022-09-25T00:25:26.241Z,8.00
2022-09-25T00:27:28.074Z,6.70
2022-09-25T00:29:30.978Z,6.75
2022-09-25T00:31:32.984Z,7.25
2022-09-25T00:33:35.349Z,6.82
2022-09-25T00:35:36.962Z,7.40
2022-09-25T00:37:38.735Z,6.57
2022-09-25T00:39:40.476Z,6.63
2022-09-25T00:41:42.261Z,6.45
2022-09-25T00:43:56.319Z,9.25
2022-09-25T00:45:58.134Z,7.68
2022-09-25T00:48:01.502Z,6.20
2022-09-25T00:50:05.640Z,8.27
2022-09-25T00:52:10.292Z,7.72
2022-09-25T00:54:33.870Z,6.90
2022-09-25T00:56:39.738Z,6.57
2022-09-25T00:58:41.934Z,11.90
2022-09-25T01:00:44.101Z,6.80
2022-09-25T01:02:55.820Z,6.75
2022-09-25T01:05:03.922Z,6.65
2022-09-25T01:07:08.796Z,6.40
2022-09-25T01:09:13.338Z,5.00
2022-09-25T01:11:16.425Z,4.90
2022-09-25T01:13:18.496Z,6.68
2022-09-25T01:15:23.303Z,7.78
2022-09-25T01:17:30.937Z,7.78
2022-09-25T01:19:59.600Z,8.45
2022-09-25T01:22:13.449Z,7.82
2022-09-25T01:24:42.251Z,7.82
2022-09-25T01:26:53.093Z,7.25
2022-09-25T01:28:54.805Z,7.93
2022-09-25T01:31:04.334Z,9.23
2022-09-25T01:33:16.672Z,7.50
2022-09-25T01:35:40.378Z,7.35
2022-09-25T01:37:57.402Z,7.32
2022-09-25T01:40:20.473Z,6.68
2022-09-25T01:42:27.125Z,5.85
2022-09-25T01:44:38.991Z,5.70
2022-09-25T01:46:44.633Z,5.80
2022-09-25T01:48:51.307Z,6.50
2022-09-25T01:51:09.105Z,5.50
2022-09-25T01:53:14.702Z,6.55
2022-09-25T01:55:23.865Z,5.65
2022-09-25T01:57:36.711Z,6.25
2022-09-25T01:59:47.310Z,6.13
2022-09-25T02:01:49.265Z,6.28
2022-09-25T02:03:57.170Z,8.02
2022-09-25T02:06:03.136Z,7.85
2022-09-25T02:08:08.392Z,8.95
2022-09-25T02:10:14.398Z,7.47
2022-09-25T02:12:41.037Z,12.15
2022-09-25T02:14:53.962Z,9.57
2022-09-25T02:16:58.548Z,10.15
2022-09-25T02:19:18.785Z,9.32
2022-09-25T02:21:31.547Z,9.10
2022-09-25T02:24:01.556Z,8.25
2022-09-25T02:26:09.187Z,9.00
2022-09-25T02:28:10.929Z,8.88
2022-09-25T02:30:12.634Z,11.00
2022-09-25T02:32:17.430Z,9.77
2022-09-25T02:34:19.509Z,10.70
2022-09-25T02:36:23.925Z,8.90
2022-09-25T02:38:25.592Z,8.93
2022-09-25T02:41:02.596Z,10.48
2022-09-25T02:43:21.338Z,8.98
2022-09-25T02:45:25.738Z,9.88
2022-09-25T02:47:44.266Z,10.25
2022-09-25T02:50:05.615Z,9.45
2022-09-25T02:52:13.873Z,8.68
2022-09-25T02:54:44.715Z,8.93
2022-09-25T02:57:08.505Z,9.98
2022-09-25T02:59:18.834Z,9.65
2022-09-25T03:01:22.727Z,9.52
2022-09-25T03:03:25.629Z,8.80
2022-09-25T03:05:27.505Z,9.80
2022-09-25T03:07:29.235Z,10.35
2022-09-25T03:12:53.708Z,8.85
2022-09-25T03:14:55.349Z,9.73
2022-09-25T03:16:58.347Z,10.43
2022-09-25T03:19:01.032Z,11.25
2022-09-25T03:21:04.296Z,9.38
2022-09-25T03:23:06.069Z,10.65
2022-09-25T03:25:08.384Z,8.35
2022-09-25T03:27:09.931Z,11.82
2022-09-25T03:29:12.947Z,10.40
2022-09-25T03:31:14.637Z,9.40
2022-09-25T03:33:17.633Z,8.32
2022-09-25T03:35:19.208Z,10.10
2022-09-25T03:37:20.738Z,9.70
2022-09-25T03:39:22.380Z,9.52
2022-09-25T03:41:24.381Z,9.80
2022-09-25T03:43:25.917Z,9.48
2022-09-25T03:45:27.496Z,9.63
2022-09-25T03:47:29.054Z,10.80
2022-09-25T03:49:30.643Z,10.77
2022-09-25T03:51:33.793Z,12.10
2022-09-25T03:53:36.118Z,14.98
2022-09-25T03:55:37.726Z,12.55
2022-09-25T03:57:39.871Z,10.27
2022-09-25T03:59:41.425Z,11.77
2022-09-25T04:01:43.044Z,12.13
2022-09-25T04:03:47.444Z,11.25
2022-09-25T04:05:49.290Z,12.63
2022-09-25T04:07:50.868Z,11.43
2022-09-25T04:09:52.410Z,12.13
2022-09-25T04:11:56.250Z,12.23
2022-09-25T04:13:58.084Z,12.82
2022-09-25T04:16:01.365Z,12.40
2022-09-25T04:18:06.143Z,11.52
2022-09-25T04:20:08.241Z,11.82
2022-09-25T04:22:09.851Z,10.27
2022-09-25T04:24:29.958Z,11.80
2022-09-25T04:26:31.895Z,10.60
2022-09-25T04:28:34.169Z,11.52
2022-09-25T04:30:36.261Z,12.27
2022-09-25T04:32:56.450Z,13.35
2022-09-25T04:34:58.621Z,13.85
2022-09-25T04:37:01.280Z,10.48
2022-09-25T04:39:02.912Z,10.50
2022-09-25T04:41:05.762Z,10.40
2022-09-25T04:43:07.832Z,10.93
2022-09-25T04:45:09.754Z,12.38
2022-09-25T04:47:11.367Z,11.65
2022-09-25T04:49:13.195Z,11.57
2022-09-25T04:51:14.822Z,11.27
2022-09-25T04:53:16.543Z,11.63
2022-09-25T04:55:19.164Z,10.57
2022-09-25T04:57:39.137Z,9.77
2022-09-25T04:59:43.101Z,8.70
2022-09-25T05:01:44.788Z,10.32
2022-09-25T05:03:53.548Z,11.23
2022-09-25T05:05:55.556Z,10.35
2022-09-25T05:08:00.389Z,10.57
2022-09-25T05:10:01.981Z,13.65
2022-09-25T05:12:03.715Z,11.02
2022-09-25T05:14:05.361Z,10.07
2022-09-25T05:16:07.117Z,9.80
2022-09-25T05:18:18.136Z,10.65
2022-09-25T05:20:19.715Z,8.20
2022-09-25T05:22:21.347Z,8.63
2022-09-25T05:24:22.931Z,8.25
2022-09-25T05:26:24.833Z,8.07
2022-09-25T05:28:26.376Z,7.95
2022-09-25T05:30:31.069Z,8.65
2022-09-25T05:32:32.650Z,7.32
2022-09-25T05:34:34.928Z,6.93
2022-09-25T05:36:39.566Z,6.68
2022-09-25T05:38:41.181Z,6.75
2022-09-25T05:40:43.418Z,7.18
2022-09-25T05:42:45.264Z,8.18
2022-09-25T05:44:46.886Z,9.20
2022-09-25T05:46:48.509Z,12.10
2022-09-25T05:48:50.067Z,7.22
2022-09-25T05:50:56.003Z,8.00
2022-09-25T05:53:01.459Z,7.82
2022-09-25T05:55:06.125Z,9.20
2022-09-25T05:57:07.783Z,8.73
2022-09-25T05:59:09.418Z,12.68
2022-09-25T06:01:11.074Z,8.82
2022-09-25T06:03:12.824Z,8.20
2022-09-25T06:05:14.795Z,10.00
2022-09-25T06:07:16.466Z,7.35
2022-09-25T06:09:18.447Z,7.78
2022-09-25T06:11:20.020Z,8.63
2022-09-25T06:13:23.406Z,9.25
2022-09-25T06:15:28.923Z,8.80
2022-09-25T06:17:30.464Z,8.55
2022-09-25T06:19:32.104Z,6.57
2022-09-25T06:21:33.952Z,9.20
2022-09-25T06:23:35.540Z,8.88
2022-09-25T06:25:37.168Z,8.05
2022-09-25T06:27:38.836Z,7.25
2022-09-25T06:29:40.403Z,7.55
2022-09-25T06:31:42.061Z,8.57
2022-09-25T06:33:43.959Z,8.65
2022-09-25T06:35:47.598Z,9.25
2022-09-25T06:37:49.129Z,9.65
2022-09-25T06:39:50.737Z,9.23
2022-09-25T06:41:54.002Z,10.52
2022-09-25T06:43:55.606Z,9.70
2022-09-25T06:46:02.261Z,14.55
2022-09-25T06:48:05.910Z,10.05
2022-09-25T06:50:08.357Z,10.02
2022-09-25T06:52:09.979Z,9.95
2022-09-25T06:54:11.699Z,8.95
2022-09-25T06:56:13.524Z,8.77
2022-09-25T06:58:17.803Z,13.43
2022-09-25T07:00:19.459Z,9.25
2022-09-25T07:02:39.971Z,10.45
2022-09-25T07:04:41.533Z,9.77
2022-09-25T07:06:44.035Z,15.02
2022-09-25T07:08:48.193Z,14.05
2022-09-25T07:10:55.870Z,15.50
2022-09-25T07:12:57.924Z,13.52
2022-09-25T07:14:59.532Z,14.75
2022-09-25T07:17:01.164Z,13.27
2022-09-25T07:19:04.375Z,12.30
2022-09-25T07:21:08.602Z,10.65
2022-09-25T07:23:10.953Z,11.48
2022-09-25T07:25:13.010Z,13.00
2022-09-25T07:27:14.620Z,13.45
2022-09-25T07:29:16.449Z,13.40
2022-09-25T07:31:20.603Z,12.25
2022-09-25T07:33:25.022Z,12.68
2022-09-25T07:35:27.335Z,11.65
2022-09-25T07:37:29.303Z,12.60
2022-09-25T07:39:30.873Z,12.77
2022-09-25T07:41:32.894Z,12.77
2022-09-25T07:43:34.740Z,14.00
2022-09-25T07:45:36.865Z,12.25
2022-09-25T07:47:38.413Z,12.02
2022-09-25T07:49:40.270Z,12.68
2022-09-25T07:51:41.920Z,13.63
2022-09-25T07:53:44.158Z,12.32
2022-09-25T07:55:46.610Z,11.30
2022-09-25T07:57:49.433Z,10.63
2022-09-25T07:59:50.996Z,11.32
2022-09-25T08:01:54.337Z,10.68
2022-09-25T08:03:56.150Z,12.23
2022-09-25T08:06:01.866Z,8.65
2022-09-25T08:08:04.302Z,6.95
2022-09-25T08:10:06.666Z,6.95
2022-09-25T08:12:11.639Z,7.90
2022-09-25T08:14:14.599Z,7.32
2022-09-25T08:16:20.874Z,8.73
2022-09-25T08:18:22.527Z,7.10
2022-09-25T08:20:24.067Z,8.52
2022-09-25T08:22:25.720Z,8.73
2022-09-25T08:24:27.456Z,7.05
2022-09-25T08:26:29.536Z,8.93
2022-09-25T08:28:32.125Z,7.55
2022-09-25T08:30:33.739Z,6.80
2022-09-25T08:32:36.591Z,8.30
2022-09-25T08:34:41.936Z,8.00
2022-09-25T08:36:44.118Z,6.65
2022-09-25T08:38:46.720Z,5.75
2022-09-25T08:40:55.007Z,5.97
2022-09-25T08:42:57.134Z,5.43
2022-09-25T08:45:22.672Z,5.55
2022-09-25T08:47:43.692Z,5.80
2022-09-25T08:49:54.928Z,4.35
2022-09-25T08:52:02.106Z,2.88
2022-09-25T08:54:04.776Z,3.30
2022-09-25T08:56:17.498Z,4.05
2022-09-25T08:58:24.885Z,4.00
2022-09-25T09:00:26.469Z,4.35
2022-09-25T09:02:41.187Z,4.45
2022-09-25T09:04:57.856Z,4.07
2022-09-25T09:07:26.685Z,4.10
2022-09-25T09:09:34.884Z,4.05
2022-09-25T09:12:02.071Z,3.08
2022-09-25T09:14:17.696Z,3.22
2022-09-25T09:16:49.042Z,6.18
2022-09-25T09:18:50.852Z,2.63
2022-09-25T09:20:57.905Z,2.33
2022-09-25T09:22:59.853Z,2.47
2022-09-25T09:25:29.306Z,2.00
2022-09-25T09:27:49.558Z,5.07
2022-09-25T09:29:53.854Z,2.38
2022-09-25T09:32:13.769Z,1.95
2022-09-25T09:34:52.901Z,2.90
2022-09-25T09:36:59.444Z,2.45
2022-09-25T09:39:25.773Z,2.10
2022-09-25T09:41:45.910Z,2.70
2022-09-25T09:44:02.653Z,2.65
2022-09-25T09:46:06.990Z,3.75
2022-09-25T09:48:41.946Z,3.40
2022-09-25T09:50:53.122Z,6.63
2022-09-25T09:53:06.905Z,1.75
2022-09-25T09:55:23.720Z,2.30
2022-09-25T09:57:34.383Z,2.13
2022-09-25T09:59:44.349Z,2.40
2022-09-25T10:01:54.848Z,2.40
2022-09-25T10:04:05.001Z,2.38
2022-09-25T10:06:12.684Z,1.83
2022-09-25T10:08:14.909Z,2.28
2022-09-25T10:10:18.049Z,1.50
2022-09-25T10:12:33.819Z,1.58
2022-09-25T10:14:42.272Z,2.35
2022-09-25T10:16:43.880Z,1.83
2022-09-25T10:19:22.251Z,1.85
2022-09-25T10:21:27.384Z,1.50
2022-09-25T10:23:48.438Z,2.05
2022-09-25T10:25:55.131Z,1.58
2022-09-25T10:27:57.585Z,10.30
2022-09-25T10:30:11.023Z,3.20
2022-09-25T10:32:13.109Z,3.42
2022-09-25T10:34:17.863Z,2.67
2022-09-25T10:36:35.001Z,4.13
2022-09-25T10:38:47.323Z,1.85
2022-09-25T10:40:59.607Z,2.05
2022-09-25T10:43:23.635Z,1.50
2022-09-25T10:45:34.343Z,6.40
2022-09-25T10:47:54.448Z,1.33
2022-09-25T10:50:11.237Z,3.63
2022-09-25T10:52:14.650Z,2.47
2022-09-25T10:54:16.719Z,1.73
2022-09-25T10:56:27.615Z,1.40
2022-09-25T10:58:39.203Z,1.88
2022-09-25T11:00:52.146Z,4.55
2022-09-25T11:02:57.542Z,8.02
2022-09-25T11:04:59.191Z,9.07
2022-09-25T11:07:07.975Z,3.97
2022-09-25T11:09:18.096Z,4.32
2022-09-25T11:11:26.921Z,4.32
2022-09-25T11:13:30.477Z,2.97
2022-09-25T11:15:32.341Z,4.72
2022-09-25T11:17:39.608Z,2.05
2022-09-25T11:19:41.278Z,5.60
2022-09-25T11:21:50.192Z,2.78
2022-09-25T11:24:17.913Z,3.38
2022-09-25T11:26:25.493Z,3.00
2022-09-25T11:28:57.677Z,2.40
2022-09-25T11:31:11.408Z,2.45
2022-09-25T11:33:24.561Z,2.90
2022-09-25T11:35:57.274Z,3.13
2022-09-25T11:38:45.410Z,3.55
2022-09-25T11:41:12.580Z,4.50
2022-09-25T11:43:17.057Z,4.65
2022-09-25T11:45:36.656Z,3.38
2022-09-25T11:47:43.742Z,5.78
2022-09-25T11:49:48.782Z,3.95
2022-09-25T11:52:18.572Z,4.22
2022-09-25T11:54:34.504Z,3.42
2022-09-25T11:56:58.300Z,4.30
2022-09-25T11:59:08.613Z,3.40
2022-09-25T12:01:37.009Z,4.22
2022-09-25T12:04:12.977Z,4.10
2022-09-25T12:06:20.000Z,3.92
2022-09-25T12:09:07.330Z,4.45
2022-09-25T12:11:27.335Z,5.20
2022-09-25T12:13:55.740Z,4.45
2022-09-25T12:16:15.245Z,5.10
2022-09-25T12:18:22.924Z,5.07
2022-09-25T12:20:35.137Z,4.35
2022-09-25T12:23:08.667Z,5.07
2022-09-25T12:25:35.107Z,4.13
2022-09-25T12:27:58.159Z,4.72
2022-09-25T12:30:19.510Z,5.30
2022-09-25T12:32:47.771Z,5.38
2022-09-25T12:35:09.838Z,6.03
2022-09-25T12:37:27.640Z,6.03
2022-09-25T12:39:37.220Z,6.93
2022-09-25T12:41:44.788Z,3.90
2022-09-25T12:44:00.392Z,3.38
2022-09-25T12:46:21.262Z,1.38
2022-09-25T12:48:46.251Z,2.65
2022-09-25T12:51:09.419Z,2.08
2022-09-25T12:53:17.020Z,1.30
2022-09-25T12:55:23.314Z,1.13
2022-09-25T12:57:35.191Z,1.05
2022-09-25T12:59:46.612Z,1.20
2022-09-25T13:01:53.376Z,1.98
2022-09-25T13:04:35.427Z,0.75
2022-09-25T13:06:42.935Z,0.80
2022-09-25T13:08:52.826Z,1.05
2022-09-25T13:10:56.981Z,0.98
2022-09-25T13:13:03.193Z,0.90
2022-09-25T13:15:11.786Z,1.35
2022-09-25T13:17:15.933Z,1.00
2022-09-25T13:19:26.851Z,1.08
2022-09-25T13:21:33.768Z,0.75
2022-09-25T13:23:40.681Z,0.93
2022-09-25T13:26:00.954Z,1.13
2022-09-25T13:28:08.334Z,0.70
2022-09-25T13:30:21.942Z,0.77
2022-09-25T13:32:29.019Z,0.80
2022-09-25T13:34:34.829Z,0.82
2022-09-25T13:36:48.280Z,0.80
2022-09-25T13:39:16.006Z,0.82
2022-09-25T13:41:17.661Z,1.55
2022-09-25T13:43:28.920Z,0.90
2022-09-25T13:45:37.486Z,1.10
2022-09-25T13:48:44.025Z,0.90
2022-09-25T13:50:47.071Z,1.00
2022-09-25T13:52:48.678Z,0.95
2022-09-25T13:54:50.359Z,8.15
2022-09-25T13:56:54.324Z,6.43
2022-09-25T13:59:23.253Z,4.32
2022-09-25T14:01:35.564Z,6.95
2022-09-25T14:03:45.795Z,4.38
2022-09-25T14:05:47.458Z,2.53
2022-09-25T14:07:54.928Z,2.40
2022-09-25T14:09:58.075Z,3.15
2022-09-25T14:11:59.702Z,1.73
2022-09-25T14:14:04.802Z,4.70
2022-09-25T14:16:11.454Z,2.35
2022-09-25T14:18:20.448Z,1.85
2022-09-25T14:20:42.904Z,1.98
2022-09-25T14:22:53.695Z,2.17
2022-09-25T14:24:55.305Z,2.47
2022-09-25T14:27:01.349Z,2.75
2022-09-25T14:29:03.048Z,4.18
2022-09-25T14:31:32.114Z,3.80
2022-09-25T14:33:58.457Z,2.15
2022-09-25T14:36:12.652Z,3.88
2022-09-25T14:38:32.930Z,3.58
2022-09-25T14:40:41.063Z,2.55
2022-09-25T14:42:50.376Z,2.75
2022-09-25T14:45:06.252Z,2.78
2022-09-25T14:47:10.968Z,3.42
2022-09-25T14:49:24.620Z,3.88
2022-09-25T14:51:34.738Z,3.05
2022-09-25T14:53:41.956Z,2.60
2022-09-25T14:55:46.567Z,5.68
2022-09-25T14:57:48.655Z,5.90
2022-09-25T14:59:52.258Z,8.55
2022-09-25T15:01:54.061Z,6.57
2022-09-25T15:04:08.459Z,5.88
2022-09-25T15:06:15.394Z,4.13
2022-09-25T15:08:23.810Z,3.95
2022-09-25T15:10:37.193Z,4.88
2022-09-25T15:12:45.875Z,8.18
2022-09-25T15:15:08.112Z,6.70
2022-09-25T15:17:24.012Z,6.25
2022-09-25T15:19:30.748Z,5.13
2022-09-25T15:21:33.934Z,4.07
2022-09-25T15:23:38.174Z,8.68
2022-09-25T15:25:43.281Z,5.70
2022-09-25T15:27:44.931Z,3.53
2022-09-25T15:29:48.836Z,3.42
2022-09-25T15:31:51.486Z,9.38
2022-09-25T15:34:21.424Z,9.98
2022-09-25T15:36:24.122Z,9.88
2022-09-25T15:38:42.751Z,8.38
2022-09-25T15:40:54.982Z,4.63
2022-09-25T15:42:57.448Z,6.18
2022-09-25T15:45:06.112Z,4.93
2022-09-25T15:47:36.929Z,5.05
2022-09-25T15:49:42.957Z,4.70
2022-09-25T15:51:52.846Z,5.10
2022-09-25T15:53:59.224Z,3.08
2022-09-25T15:56:20.121Z,9.50
2022-09-25T15:58:33.383Z,3.25
2022-09-25T16:00:53.448Z,7.50
2022-09-25T16:03:23.718Z,5.72
2022-09-25T16:05:36.127Z,6.20
2022-09-25T16:07:39.069Z,7.30
2022-09-25T16:09:49.607Z,3.30
2022-09-25T16:11:51.795Z,5.63
2022-09-25T16:13:55.116Z,5.35
2022-09-25T16:15:56.820Z,4.93
2022-09-25T16:18:23.348Z,5.65
2022-09-25T16:20:36.243Z,5.68
2022-09-25T16:22:45.468Z,3.88
2022-09-25T16:24:52.293Z,3.45
2022-09-25T16:26:56.330Z,8.30
2022-09-25T16:29:01.695Z,5.72
2022-09-25T16:31:05.824Z,6.07
2022-09-25T16:33:33.847Z,3.15
2022-09-25T16:36:05.380Z,9.40
2022-09-25T16:38:01.694Z,7.15
2022-09-25T16:40:19.178Z,5.88
2022-09-25T16:42:27.530Z,4.35
2022-09-25T16:44:32.137Z,5.32
2022-09-25T16:46:34.654Z,4.55
2022-09-25T16:48:37.980Z,4.38
2022-09-25T16:50:39.981Z,4.53
2022-09-25T16:52:43.199Z,6.05
2022-09-25T16:54:44.784Z,3.92
2022-09-25T16:56:48.259Z,4.35
2022-09-25T16:58:50.766Z,5.03
2022-09-25T17:00:52.526Z,6.18
2022-09-25T17:02:54.940Z,7.53
2022-09-25T17:04:57.293Z,6.93
2022-09-25T17:06:59.114Z,5.78
2022-09-25T17:09:00.735Z,5.32
2022-09-25T17:11:02.423Z,9.85
2022-09-25T17:13:04.831Z,4.07
2022-09-25T17:15:08.092Z,5.45
2022-09-25T17:17:09.894Z,6.28
2022-09-25T17:19:16.120Z,6.55
2022-09-25T17:21:19.114Z,8.68
2022-09-25T17:23:22.850Z,7.93
2022-09-25T17:25:39.567Z,13.20
2022-09-25T17:27:41.156Z,14.48
2022-09-25T17:29:43.138Z,15.73
2022-09-25T17:31:44.846Z,22.75
2022-09-25T17:33:49.934Z,17.73
2022-09-25T17:36:05.802Z,21.98
2022-09-25T17:38:08.082Z,17.38
2022-09-25T17:40:09.923Z,16.63
2022-09-25T17:42:12.416Z,14.52
2022-09-25T17:44:22.274Z,16.77
2022-09-25T17:46:26.594Z,13.05
2022-09-25T17:48:30.438Z,6.85
2022-09-25T17:50:32.878Z,6.10
2022-09-25T17:52:34.478Z,5.05
2022-09-25T17:54:36.093Z,6.50
2022-09-25T17:56:39.560Z,4.68
2022-09-25T17:58:44.482Z,8.15
2022-09-25T18:00:46.218Z,10.57
2022-09-25T18:02:47.873Z,6.55
2022-09-25T18:04:49.618Z,7.82
2022-09-25T18:06:51.914Z,5.72
2022-09-25T18:08:54.984Z,5.93
2022-09-25T18:10:58.791Z,9.30
2022-09-25T18:13:00.825Z,5.88
2022-09-25T18:15:02.731Z,7.32
2022-09-25T18:17:04.363Z,9.20
2022-09-25T18:19:24.573Z,5.65
2022-09-25T18:21:44.876Z,8.77
2022-09-25T18:23:49.571Z,6.78
2022-09-25T18:25:51.575Z,13.85
2022-09-25T18:27:53.197Z,5.90
2022-09-25T18:29:54.924Z,6.15
2022-09-25T18:31:56.592Z,7.35
2022-09-25T18:33:58.154Z,6.65
2022-09-25T18:36:00.110Z,7.18
2022-09-25T18:38:01.955Z,6.47
2022-09-25T18:40:04.049Z,6.20
2022-09-25T18:42:05.785Z,5.68
2022-09-25T18:44:07.556Z,9.27
2022-09-25T18:46:10.925Z,7.78
2022-09-25T18:48:12.591Z,7.20
2022-09-25T18:50:19.604Z,6.22
2022-09-25T18:52:22.471Z,8.00
2022-09-25T18:54:24.243Z,13.13
2022-09-25T18:56:27.353Z,10.40
2022-09-25T18:58:30.272Z,8.55
2022-09-25T19:00:32.042Z,8.35
2022-09-25T19:02:39.050Z,8.55
2022-09-25T19:04:40.987Z,8.00
2022-09-25T19:06:42.697Z,14.65
2022-09-25T19:08:44.954Z,6.93
2022-09-25T19:10:46.560Z,12.23
2022-09-25T19:12:48.407Z,6.13
2022-09-25T19:14:51.206Z,7.03
2022-09-25T19:16:53.179Z,7.18
2022-09-25T19:18:54.871Z,5.88
2022-09-25T19:20:56.558Z,6.13
2022-09-25T19:23:00.896Z,6.53
2022-09-25T19:25:04.041Z,9.27
2022-09-25T19:27:06.252Z,11.68
2022-09-25T19:29:07.886Z,10.68
2022-09-25T19:31:15.205Z,14.50
2022-09-25T19:33:16.845Z,11.55
2022-09-25T19:35:19.605Z,8.95
2022-09-25T19:37:24.133Z,14.80
2022-09-25T19:39:26.466Z,10.38
2022-09-25T19:41:33.767Z,9.23
2022-09-25T19:43:35.395Z,5.63
2022-09-25T19:45:37.233Z,7.07
2022-09-25T19:47:38.911Z,8.07
2022-09-25T19:49:40.563Z,8.07
2022-09-25T19:51:43.058Z,4.97
2022-09-25T19:53:45.003Z,5.13
2022-09-25T19:55:54.181Z,7.32
2022-09-25T19:57:55.785Z,15.40
2022-09-25T19:59:57.425Z,5.85
2022-09-25T20:01:59.280Z,5.53
2022-09-25T20:04:03.513Z,4.47
2022-09-25T20:06:09.465Z,4.85
2022-09-25T20:08:11.215Z,4.50
2022-09-25T20:10:13.776Z,4.07
2022-09-25T20:12:15.438Z,5.65
2022-09-25T20:14:17.024Z,5.53
2022-09-25T20:16:22.259Z,8.30
2022-09-25T20:18:23.968Z,10.25
2022-09-25T20:20:29.501Z,12.02
2022-09-25T20:22:33.960Z,9.43
2022-09-25T20:24:35.529Z,9.52
2022-09-25T20:26:37.946Z,7.63
2022-09-25T20:28:40.528Z,5.78
2022-09-25T20:30:42.366Z,6.40
2022-09-25T20:32:44.026Z,4.63
2022-09-25T20:34:45.722Z,10.23
2022-09-25T20:36:47.533Z,5.90
2022-09-25T20:38:50.893Z,10.98
2022-09-25T20:40:52.769Z,4.22
2022-09-25T20:42:54.682Z,4.70
2022-09-25T20:44:56.447Z,5.15
2022-09-25T20:46:58.311Z,11.50
2022-09-25T20:49:00.587Z,4.57
2022-09-25T20:51:08.922Z,5.60
2022-09-25T20:53:10.540Z,5.03
2022-09-25T20:55:12.160Z,6.32
2022-09-25T20:57:13.756Z,4.93
2022-09-25T20:59:17.370Z,4.22
2022-09-25T21:01:22.807Z,4.80
2022-09-25T21:03:24.792Z,7.10
2022-09-25T21:05:26.512Z,6.10
2022-09-25T21:07:28.214Z,4.38
2022-09-25T21:09:30.059Z,7.68
2022-09-25T21:11:33.008Z,7.65
2022-09-25T21:13:36.263Z,12.02
2022-09-25T21:15:37.904Z,12.45
2022-09-25T21:17:39.553Z,10.80
2022-09-25T21:19:41.257Z,12.23
2022-09-25T21:21:43.076Z,10.63
2022-09-25T21:23:49.242Z,8.80
2022-09-25T21:25:52.644Z,7.32
2022-09-25T21:27:54.317Z,11.18
2022-09-25T21:29:55.970Z,6.90
2022-09-25T21:31:58.020Z,4.85
2022-09-25T21:34:00.037Z,11.68
2022-09-25T21:36:02.081Z,6.35
2022-09-25T21:38:04.047Z,6.45
2022-09-25T21:40:06.552Z,4.82
2022-09-25T21:42:08.142Z,4.72
2022-09-25T21:44:14.590Z,5.05
2022-09-25T21:46:18.385Z,3.78
2022-09-25T21:48:20.615Z,5.03
2022-09-25T21:50:22.247Z,4.40
2022-09-25T21:52:25.387Z,3.97
2022-09-25T21:54:28.411Z,3.80
2022-09-25T21:56:31.769Z,4.55
2022-09-25T21:58:34.043Z,4.00
2022-09-25T22:00:35.667Z,4.47
2022-09-25T22:02:38.526Z,5.93
2022-09-25T22:04:40.233Z,7.65
2022-09-25T22:06:44.593Z,4.70
2022-09-25T22:08:49.523Z,4.72
2022-09-25T22:11:00.944Z,6.53
2022-09-25T22:13:02.982Z,5.50
2022-09-25T22:15:05.198Z,5.25
2022-09-25T22:17:06.951Z,6.35
2022-09-25T22:19:20.617Z,5.63
2022-09-25T22:21:24.379Z,5.15
2022-09-25T22:23:26.121Z,4.05
2022-09-25T22:25:27.991Z,3.90
2022-09-25T22:27:29.610Z,3.63
2022-09-25T22:29:31.880Z,7.40
2022-09-25T22:31:34.990Z,3.72
2022-09-25T22:33:36.781Z,4.10
2022-09-25T22:35:38.408Z,3.63
2022-09-25T22:37:39.994Z,3.33
2022-09-25T22:39:41.902Z,3.45
2022-09-25T22:41:43.771Z,4.20
2022-09-25T22:43:50.004Z,4.00
2022-09-25T22:45:53.249Z,3.90
2022-09-25T22:47:55.494Z,3.70
2022-09-25T22:49:57.339Z,3.92
2022-09-25T22:51:59.177Z,4.72
2022-09-25T22:54:00.829Z,6.15
2022-09-25T22:56:18.404Z,6.95
2022-09-25T22:58:20.565Z,13.35
2022-09-25T23:00:22.313Z,4.93
2022-09-25T23:02:23.903Z,8.10
2022-09-25T23:04:25.708Z,4.97
2022-09-25T23:06:28.956Z,7.78
2022-09-25T23:08:31.008Z,4.53
2022-09-25T23:10:48.913Z,5.90
2022-09-25T23:12:56.564Z,6.32
2022-09-25T23:14:58.166Z,6.30
2022-09-25T23:17:00.760Z,6.20
2022-09-25T23:19:03.041Z,6.10
2022-09-25T23:21:05.127Z,6.95
2022-09-25T23:23:06.726Z,8.23
2022-09-25T23:25:08.772Z,5.32
2022-09-25T23:27:10.350Z,6.57
2022-09-25T23:29:14.179Z,6.95
2022-09-25T23:31:17.060Z,4.88
2022-09-25T23:33:18.693Z,5.55
2022-09-25T23:35:20.536Z,5.05
2022-09-25T23:37:22.182Z,4.57
2022-09-25T23:39:23.888Z,5.72
2022-09-25T23:41:30.692Z,4.32
2022-09-25T23:43:32.332Z,7.30
2022-09-25T23:45:34.006Z,4.05
2022-09-25T23:47:35.668Z,4.72
2022-09-25T23:49:37.375Z,4.35
2022-09-25T23:51:39.240Z,4.45
2022-09-25T23:53:41.538Z,4.03
2022-09-25T23:55:43.224Z,4.60
2022-09-25T23:57:44.817Z,4.55
2022-09-25T23:59:46.435Z,5.35
